Time;durP1;ratioP1;P1;durP2;ratioP2;P2;SDS_P1;SDS_P2;PMS_P1;PMS_P2;Temp;Humidity;BMP_temperature;BMP_pressure;BME280_temperature;BME280_humidity;BME280_pressure;Samples;Min_cycle;Max_cycle;Signal;HPM_P1;HPM_P2
2022/03/11 00:00:25;;;;;;;;;;;0.70;99.90;;;;;;4192242;28;19980;-50
2022/03/11 00:02:27;;;;;;;;;;;0.60;99.90;;;;;;4193613;28;19955;-48
2022/03/11 00:04:29;;;;;;;;;;;0.70;99.90;;;;;;4193610;28;19950;-50
2022/03/11 00:06:31;;;;;;;;;;;0.70;99.90;;;;;;4192775;28;19925;-51
2022/03/11 00:08:33;;;;;;;;;;;0.40;99.90;;;;;;4192859;28;20419;-50
2022/03/11 00:10:35;;;;;;;;;;;0.20;99.90;;;;;;4192652;28;19932;-48
2022/03/11 00:12:37;;;;;;;;;;;0.00;99.90;;;;;;4192973;28;20308;-50
2022/03/11 00:14:39;;;;;;;;;;;-0.30;99.90;;;;;;4193460;28;19946;-49
2022/03/11 00:16:41;;;;;;;;;;;-0.40;99.90;;;;;;4192910;28;19932;-50
2022/03/11 00:18:43;;;;;;;;;;;-0.20;99.90;;;;;;4192888;28;19991;-51
2022/03/11 00:20:45;;;;;;;;;;;-0.20;99.90;;;;;;4195608;28;20311;-51
2022/03/11 00:22:47;;;;;;;;;;;-0.20;99.90;;;;;;4196685;28;19982;-51
2022/03/11 00:24:49;;;;;;;;;;;-0.30;99.90;;;;;;4196503;28;19928;-50
2022/03/11 00:26:52;;;;;;;;;;;-0.30;99.90;;;;;;4196434;28;19974;-49
2022/03/11 00:28:54;;;;;;;;;;;-0.30;99.90;;;;;;4196681;28;19932;-48
2022/03/11 00:30:56;;;;;;;;;;;-0.50;99.90;;;;;;4196222;28;20476;-49
2022/03/11 00:32:58;;;;;;;;;;;-0.30;99.90;;;;;;4196529;28;19945;-49
2022/03/11 00:35:00;;;;;;;;;;;-0.20;99.90;;;;;;4196670;28;19932;-49
2022/03/11 00:37:02;;;;;;;;;;;-0.10;99.90;;;;;;4195918;28;20057;-49
2022/03/11 00:39:04;;;;;;;;;;;0.00;99.90;;;;;;4195033;28;19932;-50
2022/03/11 00:41:06;;;;;;;;;;;-0.10;99.90;;;;;;4195613;28;20436;-51
2022/03/11 00:43:08;;;;;;;;;;;-0.30;99.90;;;;;;4196335;28;20738;-48
2022/03/11 00:45:10;;;;;;;;;;;-0.30;99.90;;;;;;4195919;28;20347;-50
2022/03/11 00:47:12;;;;;;;;;;;-0.20;99.90;;;;;;4196066;28;19924;-48
2022/03/11 00:49:14;;;;;;;;;;;-0.10;99.90;;;;;;4195734;28;19929;-50
2022/03/11 00:51:16;;;;;;;;;;;0.10;99.90;;;;;;4196019;28;19973;-48
2022/03/11 00:53:18;;;;;;;;;;;0.10;99.90;;;;;;4196387;28;20323;-51
2022/03/11 00:55:20;;;;;;;;;;;-0.20;99.90;;;;;;4195837;28;19924;-51
2022/03/11 00:57:22;;;;;;;;;;;-0.50;99.90;;;;;;4195929;28;19929;-50
2022/03/11 00:59:24;;;;;;;;;;;-0.70;99.90;;;;;;4195794;28;20400;-51
2022/03/11 01:01:25;;;;;;;;;;;-0.80;99.90;;;;;;4195704;28;19925;-51
2022/03/11 01:03:27;;;;;;;;;;;-0.80;99.90;;;;;;4196114;28;20027;-51
2022/03/11 01:05:29;;;;;;;;;;;-0.80;99.90;;;;;;4195858;28;19929;-50
2022/03/11 01:07:31;;;;;;;;;;;-0.90;99.90;;;;;;4196021;28;19929;-50
2022/03/11 01:09:33;;;;;;;;;;;-1.00;99.90;;;;;;4195617;28;20289;-49
2022/03/11 01:11:36;;;;;;;;;;;-1.10;99.90;;;;;;4195576;28;19929;-50
2022/03/11 01:13:39;;;;;;;;;;;-1.20;99.90;;;;;;4183616;28;19998;-49
2022/03/11 01:15:40;;;;;;;;;;;-1.20;99.90;;;;;;4192892;28;20558;-50
2022/03/11 01:17:42;;;;;;;;;;;-1.20;99.90;;;;;;4195512;28;19974;-51
2022/03/11 01:19:44;;;;;;;;;;;-1.20;99.90;;;;;;4195561;28;19955;-48
2022/03/11 01:21:46;;;;;;;;;;;-1.20;99.90;;;;;;4195809;28;19939;-47
2022/03/11 01:23:48;;;;;;;;;;;-1.10;99.90;;;;;;4194380;28;19971;-48
2022/03/11 01:25:50;;;;;;;;;;;-0.80;99.90;;;;;;4195794;28;19978;-52
2022/03/11 01:27:52;;;;;;;;;;;-0.80;99.90;;;;;;4195561;28;19929;-50
2022/03/11 01:29:54;;;;;;;;;;;-0.70;99.90;;;;;;4194259;28;19925;-51
2022/03/11 01:31:56;;;;;;;;;;;-0.70;99.90;;;;;;4194735;28;20435;-51
2022/03/11 01:33:58;;;;;;;;;;;-0.80;99.90;;;;;;4195800;28;20445;-49
2022/03/11 01:35:59;;;;;;;;;;;-0.80;99.90;;;;;;4195350;28;19929;-51
2022/03/11 01:38:01;;;;;;;;;;;-0.90;99.90;;;;;;4195786;28;19951;-51
2022/03/11 01:40:04;;;;;;;;;;;-0.90;99.90;;;;;;4195142;28;19925;-51
2022/03/11 01:42:06;;;;;;;;;;;-0.80;99.90;;;;;;4195321;28;19924;-50
2022/03/11 01:44:09;;;;;;;;;;;-1.00;99.90;;;;;;4195404;28;20421;-48
2022/03/11 01:46:10;;;;;;;;;;;-1.00;99.90;;;;;;4193724;28;19924;-49
2022/03/11 01:48:13;;;;;;;;;;;-1.10;99.90;;;;;;4195404;28;20368;-48
2022/03/11 01:50:15;;;;;;;;;;;-1.20;99.90;;;;;;4195181;28;19956;-48
2022/03/11 01:52:16;;;;;;;;;;;-1.10;99.90;;;;;;4195230;28;20034;-49
2022/03/11 01:54:18;;;;;;;;;;;-1.10;99.90;;;;;;4195092;28;19925;-48
2022/03/11 01:56:21;;;;;;;;;;;-1.20;99.90;;;;;;4195116;28;19925;-48
2022/03/11 01:58:24;;;;;;;;;;;-1.20;99.90;;;;;;4192660;28;20422;-48
2022/03/11 02:00:26;;;;;;;;;;;-1.00;99.90;;;;;;4192003;28;19936;-50
2022/03/11 02:02:28;;;;;;;;;;;-0.90;99.90;;;;;;4193180;28;19925;-47
2022/03/11 02:04:30;;;;;;;;;;;-1.00;99.90;;;;;;4192851;28;19954;-48
2022/03/11 02:06:32;;;;;;;;;;;-1.10;99.90;;;;;;4193131;28;19929;-49
2022/03/11 02:08:34;;;;;;;;;;;-1.20;99.90;;;;;;4193004;28;19928;-49
2022/03/11 02:10:36;;;;;;;;;;;-1.20;99.90;;;;;;4193211;28;19968;-49
2022/03/11 02:13:00;;;;;;;;;;;-1.10;99.90;;;;;;4193492;28;20384;-49
2022/03/11 02:15:06;;;;;;;;;;;-0.90;99.90;;;;;;4192824;28;20053;-49
2022/03/11 02:17:09;;;;;;;;;;;-0.80;99.90;;;;;;4192690;28;19943;-49
2022/03/11 02:19:11;;;;;;;;;;;-0.80;99.90;;;;;;4192709;28;19924;-51
2022/03/11 02:21:14;;;;;;;;;;;-0.80;99.90;;;;;;4193936;28;20388;-49
2022/03/11 02:23:17;;;;;;;;;;;-0.90;99.90;;;;;;4194755;28;19931;-48
2022/03/11 02:25:19;;;;;;;;;;;-0.90;99.90;;;;;;4192894;28;19924;-49
2022/03/11 02:27:21;;;;;;;;;;;-1.00;99.90;;;;;;4194695;28;20015;-48
2022/03/11 02:29:23;;;;;;;;;;;-1.00;99.90;;;;;;4194310;28;19925;-50
2022/03/11 02:31:26;;;;;;;;;;;-1.00;99.90;;;;;;4194549;28;19924;-50
2022/03/11 02:33:28;;;;;;;;;;;-0.90;99.90;;;;;;4194630;28;20442;-51
2022/03/11 02:35:30;;;;;;;;;;;-0.80;99.90;;;;;;4194254;28;19924;-50
2022/03/11 02:37:32;;;;;;;;;;;-0.70;99.90;;;;;;4194449;28;19925;-50
2022/03/11 02:39:34;;;;;;;;;;;-0.70;99.90;;;;;;4194194;28;19928;-49
2022/03/11 02:41:37;;;;;;;;;;;-0.80;99.90;;;;;;4194522;28;19959;-49
2022/03/11 02:43:41;;;;;;;;;;;-1.10;99.90;;;;;;4194081;28;20458;-51
2022/03/11 02:45:43;;;;;;;;;;;-1.30;99.90;;;;;;4193804;28;19974;-50
2022/03/11 02:47:45;;;;;;;;;;;-1.30;99.90;;;;;;4194635;28;19986;-51
2022/03/11 02:49:47;;;;;;;;;;;-1.30;99.90;;;;;;4194328;28;19936;-48
2022/03/11 02:51:49;;;;;;;;;;;-1.30;99.90;;;;;;4194308;28;19981;-51
2022/03/11 02:53:51;;;;;;;;;;;-1.40;99.90;;;;;;4193696;28;19925;-49
2022/03/11 02:55:53;;;;;;;;;;;-1.60;99.90;;;;;;4194037;28;20282;-48
2022/03/11 02:57:55;;;;;;;;;;;-1.80;99.90;;;;;;4193986;28;19972;-52
2022/03/11 02:59:56;;;;;;;;;;;-1.80;99.90;;;;;;4194267;28;19928;-48
2022/03/11 03:01:58;;;;;;;;;;;-1.90;99.90;;;;;;4194261;28;20328;-49
2022/03/11 03:04:00;;;;;;;;;;;-1.90;99.90;;;;;;4193672;28;20012;-51
2022/03/11 03:06:03;;;;;;;;;;;-1.80;99.90;;;;;;4193964;28;19932;-51
2022/03/11 03:08:05;;;;;;;;;;;-1.70;99.90;;;;;;4194243;28;19925;-51
2022/03/11 03:10:07;;;;;;;;;;;-1.60;99.90;;;;;;4193702;28;20248;-48
2022/03/11 03:12:10;;;;;;;;;;;-1.70;99.90;;;;;;4194056;28;19963;-49
2022/03/11 03:14:11;;;;;;;;;;;-1.60;99.90;;;;;;4194007;28;20657;-51
2022/03/11 03:16:13;;;;;;;;;;;-1.70;99.90;;;;;;4193745;28;19932;-52
2022/03/11 03:18:15;;;;;;;;;;;-1.60;99.90;;;;;;4193457;28;19929;-50
2022/03/11 03:20:17;;;;;;;;;;;-1.50;99.90;;;;;;4193650;28;19935;-50
2022/03/11 03:22:19;;;;;;;;;;;-1.60;99.90;;;;;;4193689;28;19975;-48
2022/03/11 03:24:21;;;;;;;;;;;-1.70;99.90;;;;;;4193961;28;20022;-49
2022/03/11 03:26:23;;;;;;;;;;;-1.90;99.90;;;;;;4193893;28;19972;-49
2022/03/11 03:28:25;;;;;;;;;;;-2.10;99.90;;;;;;4193458;28;19932;-50
2022/03/11 03:30:27;;;;;;;;;;;-1.90;99.90;;;;;;4194130;28;19939;-49
2022/03/11 03:32:29;;;;;;;;;;;-2.00;99.90;;;;;;4193562;28;19950;-49
2022/03/11 03:34:31;;;;;;;;;;;-2.00;99.90;;;;;;4193545;28;19924;-52
2022/03/11 03:36:33;;;;;;;;;;;-2.10;99.90;;;;;;4193821;28;19931;-49
2022/03/11 03:38:35;;;;;;;;;;;-2.30;99.90;;;;;;4193348;28;19928;-49
2022/03/11 03:40:37;;;;;;;;;;;-2.40;99.90;;;;;;4182677;28;19952;-49
2022/03/11 03:42:44;;;;;;;;;;;-2.30;99.90;;;;;;4184590;28;19929;-52
2022/03/11 03:44:45;;;;;;;;;;;-2.10;99.90;;;;;;4189527;28;19982;-49
2022/03/11 03:46:47;;;;;;;;;;;-2.20;99.90;;;;;;4193871;28;19936;-51
2022/03/11 03:48:49;;;;;;;;;;;-2.30;99.90;;;;;;4193359;28;20246;-51
2022/03/11 03:50:51;;;;;;;;;;;-2.40;99.90;;;;;;4193468;28;19982;-48
2022/03/11 03:52:53;;;;;;;;;;;-2.50;99.90;;;;;;4193867;28;20023;-49
2022/03/11 03:54:55;;;;;;;;;;;-2.50;99.90;;;;;;4192605;28;19924;-51
2022/03/11 03:56:57;;;;;;;;;;;-2.60;99.90;;;;;;4193914;28;19981;-49
2022/03/11 03:59:04;;;;;;;;;;;-2.60;99.90;;;;;;4193078;28;20304;-50
2022/03/11 04:01:06;;;;;;;;;;;-2.60;99.90;;;;;;4193754;28;20269;-51
2022/03/11 04:03:08;;;;;;;;;;;-2.70;99.90;;;;;;4193341;28;20582;-49
2022/03/11 04:05:12;;;;;;;;;;;-2.70;99.90;;;;;;4193425;28;20015;-48
2022/03/11 04:07:15;;;;;;;;;;;-2.70;99.90;;;;;;4193411;28;19928;-51
2022/03/11 04:09:18;;;;;;;;;;;-2.60;99.90;;;;;;4194891;28;19947;-49
2022/03/11 04:11:20;;;;;;;;;;;-2.60;99.90;;;;;;4193520;28;20392;-50
2022/03/11 04:13:23;;;;;;;;;;;-2.50;99.90;;;;;;4190815;28;19924;-50
2022/03/11 04:15:25;;;;;;;;;;;-2.50;99.90;;;;;;4193320;28;19989;-49
2022/03/11 04:17:27;;;;;;;;;;;-2.50;99.90;;;;;;4192919;28;19929;-51
2022/03/11 04:19:29;;;;;;;;;;;-2.40;99.90;;;;;;4193283;28;20015;-52
2022/03/11 04:21:31;;;;;;;;;;;-2.50;99.90;;;;;;4193479;28;19970;-53
2022/03/11 04:23:33;;;;;;;;;;;-2.50;99.90;;;;;;4193323;28;19936;-53
2022/03/11 04:25:35;;;;;;;;;;;-2.50;99.90;;;;;;4192898;28;19955;-53
2022/03/11 04:27:37;;;;;;;;;;;-2.40;99.90;;;;;;4193658;28;19951;-53
2022/03/11 04:29:38;;;;;;;;;;;-2.30;99.90;;;;;;4185695;28;19990;-53
2022/03/11 04:31:40;;;;;;;;;;;-2.40;99.90;;;;;;4193307;28;19981;-53
2022/03/11 04:33:42;;;;;;;;;;;-2.30;99.90;;;;;;4192540;28;20495;-52
2022/03/11 04:35:44;;;;;;;;;;;-2.40;99.90;;;;;;4191592;28;19924;-53
2022/03/11 04:37:46;;;;;;;;;;;-2.40;99.90;;;;;;4192712;28;19931;-53
2022/03/11 04:39:48;;;;;;;;;;;-2.30;99.90;;;;;;4192740;28;20386;-53
2022/03/11 04:41:50;;;;;;;;;;;-2.20;99.90;;;;;;4192806;28;19924;-53
2022/03/11 04:43:52;;;;;;;;;;;-2.30;99.90;;;;;;4193047;28;19929;-53
2022/03/11 04:45:54;;;;;;;;;;;-2.40;99.90;;;;;;4193135;28;20335;-53
2022/03/11 04:47:56;;;;;;;;;;;-2.60;99.90;;;;;;4193152;28;19924;-52
2022/03/11 04:49:57;;;;;;;;;;;-2.70;99.90;;;;;;4193007;28;19982;-52
2022/03/11 04:51:59;;;;;;;;;;;-2.70;99.90;;;;;;4192982;28;20351;-52
2022/03/11 04:54:02;;;;;;;;;;;-2.60;99.90;;;;;;4191534;28;19932;-52
2022/03/11 04:56:04;;;;;;;;;;;-2.60;99.90;;;;;;4193134;28;20350;-53
2022/03/11 04:58:06;;;;;;;;;;;-2.60;99.90;;;;;;4192561;28;19971;-53
2022/03/11 05:00:08;;;;;;;;;;;-2.70;99.90;;;;;;4193102;28;19982;-53
2022/03/11 05:02:10;;;;;;;;;;;-2.70;99.90;;;;;;4192757;28;20408;-53
2022/03/11 05:04:12;;;;;;;;;;;-2.70;99.90;;;;;;4192872;28;19936;-53
2022/03/11 05:06:14;;;;;;;;;;;-2.70;99.90;;;;;;4193222;28;19954;-53
2022/03/11 05:08:16;;;;;;;;;;;-2.70;99.90;;;;;;4195380;28;19928;-52
2022/03/11 05:10:18;;;;;;;;;;;-2.80;99.90;;;;;;4194588;28;19932;-53
2022/03/11 05:12:19;;;;;;;;;;;-2.80;99.90;;;;;;4194670;28;19935;-52
2022/03/11 05:14:21;;;;;;;;;;;-2.80;99.90;;;;;;4195750;28;19976;-53
2022/03/11 05:16:23;;;;;;;;;;;-2.90;99.90;;;;;;4195689;28;19924;-52
2022/03/11 05:18:25;;;;;;;;;;;-2.90;99.90;;;;;;4195213;28;20055;-52
2022/03/11 05:20:27;;;;;;;;;;;-3.10;99.90;;;;;;4195761;28;19981;-53
2022/03/11 05:22:29;;;;;;;;;;;-3.10;99.90;;;;;;4187716;28;19976;-53
2022/03/11 05:24:31;;;;;;;;;;;-2.80;99.90;;;;;;4193353;28;19924;-53
2022/03/11 05:26:33;;;;;;;;;;;-2.80;99.90;;;;;;4194167;28;20401;-53
2022/03/11 05:28:35;;;;;;;;;;;-2.70;99.90;;;;;;4195372;28;19955;-52
2022/03/11 05:30:37;;;;;;;;;;;-2.70;99.90;;;;;;4194139;28;19931;-53
2022/03/11 05:32:40;;;;;;;;;;;-2.70;99.90;;;;;;4195479;28;19951;-53
2022/03/11 05:34:42;;;;;;;;;;;-2.60;99.90;;;;;;4195701;28;19929;-53
2022/03/11 05:36:44;;;;;;;;;;;-2.50;99.90;;;;;;4195228;28;19924;-53
2022/03/11 05:38:46;;;;;;;;;;;-2.60;99.90;;;;;;4195715;28;19925;-52
2022/03/11 05:40:48;;;;;;;;;;;-2.70;99.90;;;;;;4179699;28;19942;-52
2022/03/11 05:42:51;;;;;;;;;;;-3.00;99.90;;;;;;4193649;28;19936;-52
2022/03/11 05:44:52;;;;;;;;;;;-3.00;99.90;;;;;;4195473;28;19928;-53
2022/03/11 05:46:55;;;;;;;;;;;-3.10;99.90;;;;;;4194994;28;19924;-53
2022/03/11 05:48:57;;;;;;;;;;;-3.00;99.90;;;;;;4195194;28;20166;-52
2022/03/11 05:50:59;;;;;;;;;;;-3.00;99.90;;;;;;4195100;28;19924;-53
2022/03/11 05:53:01;;;;;;;;;;;-3.00;99.90;;;;;;4195012;28;20431;-52
2022/03/11 05:55:03;;;;;;;;;;;-3.10;99.90;;;;;;4195237;28;19929;-53
2022/03/11 05:57:05;;;;;;;;;;;-3.20;99.90;;;;;;4194647;28;19929;-49
2022/03/11 05:59:07;;;;;;;;;;;-3.10;99.90;;;;;;4191579;28;20396;-53
2022/03/11 06:01:08;;;;;;;;;;;-3.20;99.90;;;;;;4195009;28;19929;-51
2022/03/11 06:03:11;;;;;;;;;;;-3.20;99.90;;;;;;4194763;28;20395;-52
2022/03/11 06:05:13;;;;;;;;;;;-3.00;99.90;;;;;;4195026;28;19928;-53
2022/03/11 06:07:15;;;;;;;;;;;-2.90;99.90;;;;;;4194307;28;19928;-53
2022/03/11 06:09:16;;;;;;;;;;;-2.90;99.90;;;;;;4195468;28;19974;-53
2022/03/11 06:11:18;;;;;;;;;;;-3.00;99.90;;;;;;4195166;28;19932;-52
2022/03/11 06:13:20;;;;;;;;;;;-3.10;99.90;;;;;;4195855;28;19928;-52
2022/03/11 06:15:22;;;;;;;;;;;-3.20;99.90;;;;;;4195232;28;19925;-53
2022/03/11 06:17:24;;;;;;;;;;;-3.20;99.90;;;;;;4192904;28;19933;-52
2022/03/11 06:19:26;;;;;;;;;;;-3.20;99.90;;;;;;4195071;28;19924;-52
2022/03/11 06:21:28;;;;;;;;;;;-3.20;99.90;;;;;;4194376;28;20397;-52
2022/03/11 06:23:31;;;;;;;;;;;-3.20;99.90;;;;;;4194891;28;19928;-53
2022/03/11 06:25:33;;;;;;;;;;;-3.20;99.90;;;;;;4194670;28;19928;-48
2022/03/11 06:27:35;;;;;;;;;;;-2.90;99.90;;;;;;4194298;28;19929;-47
2022/03/11 06:29:37;;;;;;;;;;;-2.90;99.90;;;;;;4194890;28;19935;-51
2022/03/11 06:31:39;;;;;;;;;;;-2.90;99.90;;;;;;4193230;28;19978;-52
2022/03/11 06:33:41;;;;;;;;;;;-3.00;99.90;;;;;;4193246;28;20320;-50
2022/03/11 06:35:43;;;;;;;;;;;-3.00;99.90;;;;;;4193585;28;19928;-50
2022/03/11 06:37:46;;;;;;;;;;;-2.90;99.90;;;;;;4194486;28;20373;-48
2022/03/11 06:39:47;;;;;;;;;;;-2.80;99.90;;;;;;4194927;28;19928;-49
2022/03/11 06:41:49;;;;;;;;;;;-2.70;99.90;;;;;;4192919;28;19986;-47
2022/03/11 06:43:51;;;;;;;;;;;-2.60;99.90;;;;;;4194177;28;19924;-48
2022/03/11 06:45:54;;;;;;;;;;;-2.50;99.90;;;;;;4194032;28;19924;-50
2022/03/11 06:47:56;;;;;;;;;;;-2.40;99.90;;;;;;4194631;28;19975;-48
2022/03/11 06:49:58;;;;;;;;;;;-2.40;99.90;;;;;;4193236;28;19974;-48
2022/03/11 06:52:00;;;;;;;;;;;-2.40;99.90;;;;;;4193776;28;19939;-51
2022/03/11 06:54:02;;;;;;;;;;;-2.40;99.90;;;;;;4192926;28;19924;-51
2022/03/11 06:56:04;;;;;;;;;;;-2.30;99.90;;;;;;4193681;28;19924;-50
2022/03/11 06:58:06;;;;;;;;;;;-2.20;99.90;;;;;;4194487;28;20232;-50
2022/03/11 07:00:09;;;;;;;;;;;-2.10;99.90;;;;;;4192543;28;19933;-50
2022/03/11 07:02:11;;;;;;;;;;;-2.00;99.90;;;;;;4194001;28;19935;-52
2022/03/11 07:04:13;;;;;;;;;;;-1.90;99.90;;;;;;4192579;28;20332;-48
2022/03/11 07:06:15;;;;;;;;;;;-1.70;99.90;;;;;;4192773;28;20274;-49
2022/03/11 07:08:17;;;;;;;;;;;-1.60;99.90;;;;;;4193970;28;19924;-50
2022/03/11 07:10:20;;;;;;;;;;;-1.50;99.90;;;;;;4194047;28;19936;-51
2022/03/11 07:12:22;;;;;;;;;;;-1.30;99.90;;;;;;4194261;28;19950;-50
2022/03/11 07:14:24;;;;;;;;;;;-1.10;99.90;;;;;;4193643;28;19964;-49
2022/03/11 07:16:26;;;;;;;;;;;-1.00;99.90;;;;;;4193947;28;20426;-49
2022/03/11 07:18:29;;;;;;;;;;;-0.80;99.90;;;;;;4193242;28;20492;-50
2022/03/11 07:20:31;;;;;;;;;;;-0.80;99.90;;;;;;4193623;28;19936;-47
2022/03/11 07:22:52;;;;;;;;;;;-0.80;99.90;;;;;;4198894;28;19960;-51
2022/03/11 07:24:55;;;;;;;;;;;-0.80;99.90;;;;;;4193738;28;19974;-50
2022/03/11 07:26:57;;;;;;;;;;;-0.70;99.90;;;;;;4193940;28;19935;-48
2022/03/11 07:28:59;;;;;;;;;;;-0.50;99.90;;;;;;4193529;28;19925;-49
2022/03/11 07:31:01;;;;;;;;;;;-0.40;99.90;;;;;;4193253;28;20235;-50
2022/03/11 07:33:03;;;;;;;;;;;-0.30;99.90;;;;;;4193788;28;19971;-51
2022/03/11 07:35:06;;;;;;;;;;;-0.20;99.90;;;;;;4193739;28;19985;-49
2022/03/11 07:37:11;;;;;;;;;;;-0.10;99.90;;;;;;4193515;28;19963;-50
2022/03/11 07:39:13;;;;;;;;;;;-0.10;99.90;;;;;;4199058;28;20371;-50
2022/03/11 07:41:16;;;;;;;;;;;0.10;99.90;;;;;;4193597;28;20022;-50
2022/03/11 07:43:18;;;;;;;;;;;0.20;99.90;;;;;;4193696;28;19929;-49
2022/03/11 07:45:20;;;;;;;;;;;0.10;99.90;;;;;;4193219;28;20783;-49
2022/03/11 07:47:22;;;;;;;;;;;0.30;99.90;;;;;;4193603;28;19950;-51
2022/03/11 07:49:27;;;;;;;;;;;0.30;99.90;;;;;;4192593;28;20273;-51
2022/03/11 07:51:32;;;;;;;;;;;0.40;99.90;;;;;;4193664;28;19940;-50
2022/03/11 07:53:34;;;;;;;;;;;0.70;99.90;;;;;;4188591;28;19928;-48
2022/03/11 07:55:36;;;;;;;;;;;0.90;99.90;;;;;;4193403;28;19929;-49
2022/03/11 07:57:39;;;;;;;;;;;0.90;99.90;;;;;;4193416;28;20389;-50
2022/03/11 07:59:41;;;;;;;;;;;1.10;99.90;;;;;;4193432;28;19938;-51
2022/03/11 08:01:43;;;;;;;;;;;1.20;99.90;;;;;;4193286;28;19934;-51
2022/03/11 08:03:45;;;;;;;;;;;1.10;99.90;;;;;;4193588;28;19990;-50
2022/03/11 08:05:47;;;;;;;;;;;1.20;99.90;;;;;;4193481;28;19943;-50
2022/03/11 08:07:50;;;;;;;;;;;1.30;99.90;;;;;;4193322;28;19939;-51
2022/03/11 08:09:52;;;;;;;;;;;1.60;99.90;;;;;;4193400;28;20005;-51
2022/03/11 08:11:54;;;;;;;;;;;1.80;99.90;;;;;;4193231;28;19932;-48
2022/03/11 08:13:59;;;;;;;;;;;2.00;99.90;;;;;;4193324;28;20483;-51
2022/03/11 08:16:06;;;;;;;;;;;2.10;99.90;;;;;;4193256;28;20232;-48
2022/03/11 08:18:09;;;;;;;;;;;2.30;99.90;;;;;;4194259;28;20023;-52
2022/03/11 08:20:14;;;;;;;;;;;2.40;99.90;;;;;;4192836;28;20407;-49
2022/03/11 08:22:16;;;;;;;;;;;2.60;99.90;;;;;;4178360;28;19928;-50
2022/03/11 08:24:18;;;;;;;;;;;2.80;99.90;;;;;;4193252;28;19924;-51
2022/03/11 08:26:23;;;;;;;;;;;2.90;99.90;;;;;;4193539;28;19929;-51
2022/03/11 08:28:28;;;;;;;;;;;3.10;99.90;;;;;;4192876;28;19932;-51
2022/03/11 08:30:32;;;;;;;;;;;3.20;99.90;;;;;;4192945;28;19985;-51
2022/03/11 08:32:34;;;;;;;;;;;3.40;99.90;;;;;;4193487;28;20521;-51
2022/03/11 08:34:37;;;;;;;;;;;3.50;99.90;;;;;;4192959;28;19951;-51
2022/03/11 08:36:56;;;;;;;;;;;3.70;99.90;;;;;;4193008;28;19954;-51
2022/03/11 08:38:58;;;;;;;;;;;3.90;99.90;;;;;;4193037;28;20412;-51
2022/03/11 08:41:02;;;;;;;;;;;4.10;99.90;;;;;;4194152;28;19928;-51
2022/03/11 08:43:04;;;;;;;;;;;4.30;99.90;;;;;;4196532;28;19929;-51
2022/03/11 08:45:07;;;;;;;;;;;4.50;99.90;;;;;;4196032;28;20285;-50
2022/03/11 08:47:09;;;;;;;;;;;4.70;99.90;;;;;;4196016;28;19932;-52
2022/03/11 08:49:11;;;;;;;;;;;5.00;99.90;;;;;;4194772;28;19985;-52
2022/03/11 08:51:13;;;;;;;;;;;5.10;99.90;;;;;;4194476;28;19982;-51
2022/03/11 08:53:15;;;;;;;;;;;5.30;99.90;;;;;;4196435;28;19950;-52
2022/03/11 08:55:17;;;;;;;;;;;5.40;99.90;;;;;;4195957;28;20335;-51
2022/03/11 08:57:19;;;;;;;;;;;5.50;99.90;;;;;;4185914;28;19924;-51
2022/03/11 08:59:21;;;;;;;;;;;5.90;99.90;;;;;;4196092;28;19997;-52
2022/03/11 09:01:23;;;;;;;;;;;6.00;99.80;;;;;;4195566;28;20179;-52
2022/03/11 09:03:25;;;;;;;;;;;6.20;98.70;;;;;;4195982;28;19936;-53
2022/03/11 09:05:27;;;;;;;;;;;6.10;97.80;;;;;;4195512;28;20327;-52
2022/03/11 09:07:29;;;;;;;;;;;6.30;99.90;;;;;;4195923;28;19935;-52
2022/03/11 09:09:32;;;;;;;;;;;6.60;98.10;;;;;;4195480;28;19935;-52
2022/03/11 09:11:34;;;;;;;;;;;6.80;98.20;;;;;;4195899;28;19935;-52
2022/03/11 09:13:36;;;;;;;;;;;7.00;96.70;;;;;;4196070;28;19964;-52
2022/03/11 09:15:38;;;;;;;;;;;7.20;97.30;;;;;;4195295;28;19925;-51
2022/03/11 09:17:46;;;;;;;;;;;7.30;96.20;;;;;;4196906;28;19974;-51
2022/03/11 09:19:49;;;;;;;;;;;7.30;96.50;;;;;;4195365;28;19929;-50
2022/03/11 09:22:14;;;;;;;;;;;7.60;97.60;;;;;;4201020;28;19936;-53
2022/03/11 09:24:16;;;;;;;;;;;7.80;96.40;;;;;;4195782;28;20392;-53
2022/03/11 09:26:18;;;;;;;;;;;8.20;97.10;;;;;;4195638;28;19982;-52
2022/03/11 09:28:33;;;;;;;;;;;8.60;96.80;;;;;;4195381;28;19933;-51
2022/03/11 09:30:35;;;;;;;;;;;8.70;95.80;;;;;;4195396;28;20369;-52
2022/03/11 09:32:39;;;;;;;;;;;9.00;96.10;;;;;;4195211;28;20483;-52
2022/03/11 09:34:43;;;;;;;;;;;9.30;93.40;;;;;;4195608;28;19964;-52
2022/03/11 09:36:45;;;;;;;;;;;9.30;92.10;;;;;;4195369;28;19967;-51
2022/03/11 09:38:47;;;;;;;;;;;9.50;91.90;;;;;;4186004;28;20379;-52
2022/03/11 09:40:50;;;;;;;;;;;9.80;92.90;;;;;;4195036;28;20231;-52
2022/03/11 09:42:52;;;;;;;;;;;10.10;91.00;;;;;;4193940;28;19932;-53
2022/03/11 09:44:55;;;;;;;;;;;10.10;90.30;;;;;;4195138;28;19924;-52
2022/03/11 09:46:57;;;;;;;;;;;10.30;90.30;;;;;;4195090;28;19928;-52
2022/03/11 09:49:00;;;;;;;;;;;10.50;91.50;;;;;;4195357;28;19948;-53
2022/03/11 09:51:06;;;;;;;;;;;10.60;88.80;;;;;;4195430;28;19931;-52
2022/03/11 09:53:11;;;;;;;;;;;10.70;86.30;;;;;;4194452;28;19931;-52
2022/03/11 09:55:13;;;;;;;;;;;11.10;91.10;;;;;;4195440;28;19929;-51
2022/03/11 09:57:19;;;;;;;;;;;11.70;90.20;;;;;;4195058;28;20497;-53
2022/03/11 09:59:21;;;;;;;;;;;11.90;90.50;;;;;;4195039;28;20458;-52
2022/03/11 10:01:23;;;;;;;;;;;12.20;88.20;;;;;;4195051;28;20018;-52
2022/03/11 10:03:27;;;;;;;;;;;12.20;88.70;;;;;;4194717;28;19928;-53
2022/03/11 10:05:45;;;;;;;;;;;12.30;90.00;;;;;;4178781;28;20301;-53
2022/03/11 10:08:08;;;;;;;;;;;11.80;83.80;;;;;;4187761;28;19982;-52
2022/03/11 10:10:12;;;;;;;;;;;11.50;86.30;;;;;;4190486;28;20031;-53
2022/03/11 10:12:39;;;;;;;;;;;12.10;88.10;;;;;;4190421;28;19958;-49
2022/03/11 10:14:41;;;;;;;;;;;12.50;85.50;;;;;;4178186;28;19929;-53
2022/03/11 10:16:44;;;;;;;;;;;12.50;84.10;;;;;;4194560;28;19928;-53
2022/03/11 10:19:20;;;;;;;;;;;12.40;82.90;;;;;;4194321;28;20016;-52
2022/03/11 10:21:33;;;;;;;;;;;12.50;85.60;;;;;;4174325;28;19932;-52
2022/03/11 10:23:47;;;;;;;;;;;12.70;79.30;;;;;;4175937;28;19928;-52
2022/03/11 10:25:50;;;;;;;;;;;12.40;82.20;;;;;;4175662;28;20264;-53
2022/03/11 10:28:02;;;;;;;;;;;12.50;85.10;;;;;;4175651;28;19924;-52
2022/03/11 10:30:15;;;;;;;;;;;12.60;80.60;;;;;;4175900;28;19925;-52
2022/03/11 10:32:24;;;;;;;;;;;12.70;78.00;;;;;;4175749;28;20357;-51
2022/03/11 10:34:30;;;;;;;;;;;12.80;82.00;;;;;;4175607;28;19995;-52
2022/03/11 10:36:32;;;;;;;;;;;12.70;82.20;;;;;;4175621;28;19967;-50
2022/03/11 10:38:36;;;;;;;;;;;13.10;80.70;;;;;;4175442;28;20330;-50
2022/03/11 10:40:51;;;;;;;;;;;13.10;83.60;;;;;;4175213;28;19924;-50
2022/03/11 10:43:09;;;;;;;;;;;13.20;79.00;;;;;;4174175;28;19984;-49
2022/03/11 10:45:11;;;;;;;;;;;13.20;78.40;;;;;;4170769;28;19983;-49
2022/03/11 10:47:22;;;;;;;;;;;13.10;76.60;;;;;;4170594;28;19925;-50
2022/03/11 10:49:24;;;;;;;;;;;13.30;78.80;;;;;;4174210;28;20257;-50
2022/03/11 10:51:35;;;;;;;;;;;13.10;79.50;;;;;;4174395;28;19925;-51
2022/03/11 10:53:37;;;;;;;;;;;13.40;77.70;;;;;;4175231;28;20011;-49
2022/03/11 10:55:41;;;;;;;;;;;13.60;79.10;;;;;;4175330;28;19928;-51
2022/03/11 10:57:43;;;;;;;;;;;13.70;77.30;;;;;;4188638;28;19928;-47
2022/03/11 10:59:45;;;;;;;;;;;13.50;76.00;;;;;;4194039;28;19924;-50
2022/03/11 11:01:47;;;;;;;;;;;13.70;80.40;;;;;;4190917;28;19928;-50
2022/03/11 11:03:49;;;;;;;;;;;13.90;78.60;;;;;;4187436;28;20027;-49
2022/03/11 11:05:51;;;;;;;;;;;13.70;76.40;;;;;;4188385;28;19932;-49
2022/03/11 11:07:54;;;;;;;;;;;13.80;75.70;;;;;;4191910;28;20396;-48
2022/03/11 11:09:58;;;;;;;;;;;13.50;75.00;;;;;;4191001;28;19956;-51
2022/03/11 11:12:00;;;;;;;;;;;13.50;73.20;;;;;;4193487;28;19925;-50
2022/03/11 11:14:05;;;;;;;;;;;13.50;74.10;;;;;;4191708;28;19943;-50
2022/03/11 11:16:07;;;;;;;;;;;13.50;75.20;;;;;;4192434;28;19925;-50
2022/03/11 11:18:13;;;;;;;;;;;13.90;79.10;;;;;;4189348;28;19925;-50
2022/03/11 11:20:33;;;;;;;;;;;14.00;76.00;;;;;;4190611;28;19932;-50
2022/03/11 11:22:36;;;;;;;;;;;14.00;71.30;;;;;;4186193;28;19925;-48
2022/03/11 11:24:39;;;;;;;;;;;13.70;69.90;;;;;;4190661;28;19928;-50
2022/03/11 11:26:48;;;;;;;;;;;14.00;76.30;;;;;;4191975;28;19929;-51
2022/03/11 11:29:00;;;;;;;;;;;14.00;73.40;;;;;;4179417;28;19928;-49
2022/03/11 11:31:02;;;;;;;;;;;14.60;72.80;;;;;;4192535;28;20703;-50
2022/03/11 11:33:05;;;;;;;;;;;14.60;70.50;;;;;;4190745;28;19970;-50
2022/03/11 11:35:22;;;;;;;;;;;14.40;69.50;;;;;;4193127;28;20508;-50
2022/03/11 11:37:37;;;;;;;;;;;14.10;68.50;;;;;;4193117;28;19928;-51
2022/03/11 11:39:59;;;;;;;;;;;14.20;71.10;;;;;;4191329;28;19931;-51
2022/03/11 11:42:05;;;;;;;;;;;14.10;68.20;;;;;;4193251;28;19982;-51
2022/03/11 11:44:08;;;;;;;;;;;13.90;70.00;;;;;;4192615;28;19970;-51
2022/03/11 11:46:11;;;;;;;;;;;13.80;68.30;;;;;;4192426;28;20010;-50
2022/03/11 11:48:34;;;;;;;;;;;13.80;70.50;;;;;;4193029;28;20453;-49
2022/03/11 11:50:44;;;;;;;;;;;13.90;69.30;;;;;;4190442;28;19929;-50
2022/03/11 11:52:54;;;;;;;;;;;14.20;67.30;;;;;;4189052;28;19936;-51
2022/03/11 11:55:14;;;;;;;;;;;14.20;66.60;;;;;;4184912;28;20295;-50
2022/03/11 11:57:17;;;;;;;;;;;14.30;68.20;;;;;;4193329;28;20014;-51
2022/03/11 11:59:24;;;;;;;;;;;14.70;72.30;;;;;;4193124;28;19925;-51